createdAt,value
2018-01-25T00:01:47.001Z,1.02
2018-01-25T00:04:15.133Z,1.50
2018-01-25T00:06:43.262Z,1.40
2018-01-25T00:09:11.410Z,1.20
2018-01-25T00:11:39.540Z,1.17
2018-01-25T00:14:07.694Z,2.00
2018-01-25T00:16:35.824Z,1.85
2018-01-25T00:19:04.049Z,1.42
2018-01-25T00:21:32.181Z,1.90
2018-01-25T00:24:00.343Z,1.45
2018-01-25T00:26:28.474Z,1.70
2018-01-25T00:28:56.621Z,1.35
2018-01-25T00:31:25.522Z,1.20
2018-01-25T00:33:53.680Z,1.45
2018-01-25T00:36:22.565Z,1.50
2018-01-25T00:38:50.716Z,1.23
2018-01-25T00:41:18.845Z,0.98
2018-01-25T00:43:46.997Z,1.20
2018-01-25T00:46:15.129Z,1.50
2018-01-25T00:48:43.283Z,1.40
2018-01-25T00:51:11.417Z,1.73
2018-01-25T00:53:40.393Z,1.10
2018-01-25T00:56:08.505Z,1.10
2018-01-25T00:58:36.641Z,1.58
2018-01-25T01:01:04.795Z,1.30
2018-01-25T01:03:32.933Z,1.50
2018-01-25T01:06:01.088Z,1.37
2018-01-25T01:08:29.213Z,1.40
2018-01-25T01:10:57.373Z,1.23
2018-01-25T01:13:25.496Z,1.80
2018-01-25T01:15:53.648Z,1.17
2018-01-25T01:18:22.554Z,1.50
2018-01-25T01:20:50.713Z,1.77
2018-01-25T01:23:19.604Z,1.33
2018-01-25T01:25:47.755Z,1.33
2018-01-25T01:28:15.885Z,1.35
2018-01-25T01:30:44.037Z,1.50
2018-01-25T01:33:12.169Z,1.65
2018-01-25T01:35:40.325Z,1.20
2018-01-25T01:38:08.458Z,1.70
2018-01-25T01:40:37.377Z,1.20
2018-01-25T01:43:05.509Z,1.12
2018-01-25T01:45:34.433Z,1.42
2018-01-25T01:48:02.564Z,1.33
2018-01-25T01:50:30.734Z,1.12
2018-01-25T01:52:58.861Z,0.80
2018-01-25T01:55:26.980Z,0.70
2018-01-25T01:57:55.133Z,0.88
2018-01-25T02:00:23.263Z,0.60
2018-01-25T02:02:51.409Z,0.60
2018-01-25T02:05:19.541Z,0.50
2018-01-25T02:07:47.695Z,0.70
2018-01-25T02:10:15.818Z,0.43
2018-01-25T02:12:43.965Z,0.60
2018-01-25T02:15:12.093Z,0.55
2018-01-25T02:17:40.245Z,0.57
2018-01-25T02:20:08.369Z,0.68
2018-01-25T02:22:36.513Z,0.62
2018-01-25T02:25:05.402Z,0.70
2018-01-25T02:27:33.553Z,0.40
2018-01-25T02:30:01.672Z,0.50
2018-01-25T02:32:29.834Z,0.50
2018-01-25T02:34:57.960Z,0.50
2018-01-25T02:37:26.105Z,0.30
2018-01-25T02:39:54.230Z,0.40
2018-01-25T02:42:23.144Z,0.40
2018-01-25T02:44:51.265Z,0.30
2018-01-25T02:47:19.413Z,0.30
2018-01-25T02:49:47.561Z,0.30
2018-01-25T02:52:15.687Z,0.30
2018-01-25T02:54:43.842Z,0.30
2018-01-25T02:57:11.962Z,0.32
2018-01-25T02:59:40.873Z,0.30
2018-01-25T03:02:09.001Z,0.43
2018-01-25T03:04:37.149Z,0.30
2018-01-25T03:07:05.276Z,0.40
2018-01-25T03:09:33.426Z,0.30
2018-01-25T03:12:01.548Z,0.30
2018-01-25T03:14:29.705Z,0.30
2018-01-25T03:16:57.838Z,0.60
2018-01-25T03:19:25.980Z,0.30
2018-01-25T03:21:54.102Z,0.30
2018-01-25T03:24:22.250Z,0.30
2018-01-25T03:26:50.376Z,0.30
2018-01-25T03:29:18.517Z,0.40
2018-01-25T03:31:46.646Z,0.30
2018-01-25T03:34:14.789Z,0.40
2018-01-25T03:36:42.912Z,0.40
2018-01-25T03:39:11.089Z,0.30
2018-01-25T03:41:39.214Z,0.30
2018-01-25T03:44:07.371Z,0.37
2018-01-25T03:46:35.489Z,0.30
2018-01-25T03:49:03.632Z,0.30
2018-01-25T03:51:31.788Z,0.40
2018-01-25T03:53:59.906Z,0.30
2018-01-25T03:56:28.056Z,0.32
2018-01-25T03:58:56.177Z,0.70
2018-01-25T04:01:24.318Z,0.60
2018-01-25T04:03:52.449Z,0.30
2018-01-25T04:06:20.590Z,0.43
2018-01-25T04:08:48.722Z,0.60
2018-01-25T04:11:16.874Z,0.60
2018-01-25T04:13:45.762Z,0.30
2018-01-25T04:16:13.911Z,0.52
2018-01-25T04:18:42.035Z,0.50
2018-01-25T04:21:10.177Z,0.40
2018-01-25T04:23:39.067Z,0.50
2018-01-25T04:26:07.986Z,0.60
2018-01-25T04:28:36.143Z,0.40
2018-01-25T04:31:05.032Z,0.50
2018-01-25T04:33:33.182Z,0.68
2018-01-25T04:36:01.301Z,0.50
2018-01-25T04:38:29.453Z,0.70
2018-01-25T04:40:57.584Z,0.50
2018-01-25T04:43:25.734Z,0.40
2018-01-25T04:45:53.870Z,0.60
2018-01-25T04:48:22.786Z,0.60
2018-01-25T04:50:50.918Z,0.60
2018-01-25T04:53:19.070Z,1.20
2018-01-25T04:55:47.194Z,4.82
2018-01-25T04:58:15.351Z,0.77
2018-01-25T05:00:43.473Z,1.60
2018-01-25T05:03:11.617Z,0.50
2018-01-25T05:05:39.741Z,4.65
2018-01-25T05:08:07.890Z,3.90
2018-01-25T05:10:36.014Z,1.58
2018-01-25T05:13:04.161Z,2.20
2018-01-25T05:15:32.284Z,1.70
2018-01-25T05:18:00.430Z,1.65
2018-01-25T05:20:28.550Z,3.45
2018-01-25T05:22:56.701Z,1.35
2018-01-25T05:25:24.855Z,4.62
2018-01-25T05:27:53.750Z,1.40
2018-01-25T05:30:21.901Z,1.50
2018-01-25T05:32:50.024Z,1.77
2018-01-25T05:35:18.190Z,2.72
2018-01-25T05:37:46.312Z,1.95
2018-01-25T05:40:14.468Z,1.73
2018-01-25T05:42:42.591Z,2.17
2018-01-25T05:45:11.507Z,11.70
2018-01-25T05:47:39.628Z,4.72
2018-01-25T05:50:07.789Z,4.10
2018-01-25T05:52:35.915Z,1.30
2018-01-25T05:55:04.060Z,3.67
2018-01-25T05:57:32.194Z,1.00
2018-01-25T06:00:00.342Z,0.80
2018-01-25T06:02:28.461Z,1.90
2018-01-25T06:04:56.615Z,2.22
2018-01-25T06:07:24.742Z,1.70
2018-01-25T06:09:52.885Z,0.95
2018-01-25T06:12:21.004Z,1.30
2018-01-25T06:14:49.156Z,0.95
2018-01-25T06:17:17.300Z,1.17
2018-01-25T06:19:45.440Z,1.10
2018-01-25T06:22:13.575Z,1.00
2018-01-25T06:24:42.485Z,1.30
2018-01-25T06:27:10.605Z,2.30
2018-01-25T06:29:38.779Z,1.00
2018-01-25T06:32:06.907Z,1.20
2018-01-25T06:34:35.094Z,1.15
2018-01-25T06:37:03.228Z,1.10
2018-01-25T06:39:32.153Z,1.20
2018-01-25T06:42:00.281Z,0.80
2018-01-25T06:44:29.195Z,1.37
2018-01-25T06:46:57.327Z,1.70
2018-01-25T06:49:25.478Z,1.12
2018-01-25T06:51:53.601Z,0.70
2018-01-25T06:54:21.757Z,1.30
2018-01-25T06:56:49.876Z,1.00
2018-01-25T06:59:18.027Z,1.12
2018-01-25T07:01:46.917Z,0.85
2018-01-25T07:04:15.070Z,1.30
2018-01-25T07:06:43.194Z,4.10
2018-01-25T07:09:11.369Z,1.20
2018-01-25T07:11:39.489Z,2.22
2018-01-25T07:14:07.641Z,2.50
2018-01-25T07:16:35.768Z,1.73
2018-01-25T07:19:03.926Z,1.60
2018-01-25T07:21:32.046Z,2.70
2018-01-25T07:24:00.193Z,1.95
2018-01-25T07:26:28.316Z,1.90
2018-01-25T07:28:56.469Z,1.35
2018-01-25T07:31:24.595Z,1.65
2018-01-25T07:33:52.745Z,1.45
2018-01-25T07:36:20.909Z,3.00
2018-01-25T07:38:49.065Z,1.87
2018-01-25T07:41:17.193Z,1.83
2018-01-25T07:43:45.344Z,1.30
2018-01-25T07:46:13.473Z,3.35
2018-01-25T07:48:41.613Z,2.40
2018-01-25T07:51:09.748Z,1.73
2018-01-25T07:53:37.870Z,1.52
2018-01-25T07:56:06.024Z,1.50
2018-01-25T07:58:34.153Z,2.12
2018-01-25T08:01:02.297Z,4.43
2018-01-25T08:03:30.418Z,2.33
2018-01-25T08:05:58.575Z,2.95
2018-01-25T08:08:26.693Z,2.53
2018-01-25T08:10:54.849Z,2.53
2018-01-25T08:13:29.345Z,1.90
2018-01-25T08:16:03.089Z,3.50
2018-01-25T08:18:31.213Z,2.17
2018-01-25T08:21:00.129Z,1.77
2018-01-25T08:23:28.249Z,2.72
2018-01-25T08:25:56.402Z,2.00
2018-01-25T08:28:24.526Z,2.40
2018-01-25T08:30:52.672Z,2.22
2018-01-25T08:33:20.801Z,2.30
2018-01-25T08:35:48.950Z,2.53
2018-01-25T08:38:17.844Z,2.90
2018-01-25T08:40:46.002Z,3.50
2018-01-25T08:43:14.124Z,2.40
2018-01-25T08:45:42.269Z,2.83
2018-01-25T08:48:10.394Z,2.70
2018-01-25T08:50:38.543Z,3.00
2018-01-25T08:53:06.677Z,3.08
2018-01-25T08:55:34.821Z,2.53
2018-01-25T08:58:02.949Z,3.42
2018-01-25T09:00:31.108Z,3.62
2018-01-25T09:02:59.230Z,2.60
2018-01-25T09:05:27.382Z,3.00
2018-01-25T09:07:55.514Z,3.03
2018-01-25T09:10:23.664Z,2.97
2018-01-25T09:12:51.790Z,2.90
2018-01-25T09:15:19.947Z,3.42
2018-01-25T09:17:48.069Z,2.90
2018-01-25T09:20:16.224Z,3.05
2018-01-25T09:22:45.115Z,2.65
2018-01-25T09:25:13.274Z,2.45
2018-01-25T09:27:41.394Z,3.45
2018-01-25T09:30:09.537Z,2.50
2018-01-25T09:32:37.668Z,3.17
2018-01-25T09:35:05.809Z,2.90
2018-01-25T09:37:33.938Z,3.60
2018-01-25T09:40:02.089Z,2.90
2018-01-25T09:42:30.214Z,2.83
2018-01-25T09:44:58.367Z,2.90
2018-01-25T09:47:26.494Z,2.62
2018-01-25T09:49:54.641Z,3.10
2018-01-25T09:52:22.762Z,2.87
2018-01-25T09:54:50.912Z,3.22
2018-01-25T09:57:19.045Z,2.28
2018-01-25T09:59:47.245Z,2.80
2018-01-25T10:02:15.341Z,2.83
2018-01-25T10:04:43.498Z,3.00
2018-01-25T10:07:11.712Z,3.37
2018-01-25T10:09:40.728Z,2.10
2018-01-25T10:12:08.861Z,4.22
2018-01-25T10:14:37.087Z,2.60
2018-01-25T10:17:05.223Z,2.58
2018-01-25T10:19:33.370Z,2.90
2018-01-25T10:22:01.491Z,1.95
2018-01-25T10:24:29.831Z,1.83
2018-01-25T10:26:57.969Z,2.40
2018-01-25T10:29:26.126Z,2.37
2018-01-25T10:31:54.278Z,2.28
2018-01-25T10:34:22.393Z,1.83
2018-01-25T10:36:50.553Z,2.45
2018-01-25T10:39:18.678Z,2.40
2018-01-25T10:41:46.837Z,2.10
2018-01-25T10:44:14.957Z,3.65
2018-01-25T10:46:43.875Z,3.53
2018-01-25T10:49:12.001Z,2.37
2018-01-25T10:51:40.149Z,1.95
2018-01-25T10:54:08.421Z,1.83
2018-01-25T10:56:36.577Z,2.62
2018-01-25T10:59:04.697Z,2.45
2018-01-25T11:01:38.564Z,2.05
2018-01-25T11:04:06.702Z,2.50
2018-01-25T11:06:34.865Z,2.25
2018-01-25T11:09:02.991Z,2.62
2018-01-25T11:11:31.141Z,2.78
2018-01-25T11:13:59.259Z,2.87
2018-01-25T11:16:27.409Z,2.75
2018-01-25T11:18:55.535Z,2.60
2018-01-25T11:21:23.679Z,2.60
2018-01-25T11:23:51.837Z,2.50
2018-01-25T11:26:19.969Z,3.28
2018-01-25T11:28:48.094Z,2.33
2018-01-25T11:31:16.240Z,3.12
2018-01-25T11:33:44.388Z,2.70
2018-01-25T11:36:12.548Z,2.50
2018-01-25T11:38:40.695Z,3.05
2018-01-25T11:41:08.822Z,2.40
2018-01-25T11:43:36.966Z,2.90
2018-01-25T11:46:05.877Z,2.47
2018-01-25T11:48:34.011Z,2.83
2018-01-25T11:51:02.173Z,2.70
2018-01-25T11:53:30.293Z,3.17
2018-01-25T11:55:58.454Z,3.10
2018-01-25T11:58:26.578Z,2.80
2018-01-25T12:00:54.746Z,3.60
2018-01-25T12:03:22.862Z,3.72
2018-01-25T12:05:51.010Z,3.55
2018-01-25T12:08:19.132Z,4.00
2018-01-25T12:10:47.414Z,3.22
2018-01-25T12:13:15.449Z,3.05
2018-01-25T12:15:44.361Z,3.80
2018-01-25T12:18:12.484Z,3.22
2018-01-25T12:20:40.637Z,3.60
2018-01-25T12:23:08.791Z,2.70
2018-01-25T12:25:36.943Z,2.83
2018-01-25T12:28:05.876Z,2.45
2018-01-25T12:30:34.044Z,3.50
2018-01-25T12:33:02.165Z,2.50
2018-01-25T12:35:30.321Z,3.28
2018-01-25T12:37:58.467Z,2.55
2018-01-25T12:40:27.262Z,3.05
2018-01-25T12:42:55.385Z,2.83
2018-01-25T12:45:23.556Z,2.90
2018-01-25T12:47:51.689Z,2.95
2018-01-25T12:50:19.873Z,2.22
2018-01-25T12:52:48.001Z,2.65
2018-01-25T12:55:16.156Z,2.53
2018-01-25T12:57:44.305Z,2.50
2018-01-25T13:00:13.262Z,2.60
2018-01-25T13:02:41.398Z,2.75
2018-01-25T13:05:10.291Z,2.50
2018-01-25T13:07:38.435Z,2.00
2018-01-25T13:10:06.557Z,4.43
2018-01-25T13:12:34.713Z,2.05
2018-01-25T13:15:02.844Z,3.08
2018-01-25T13:17:30.996Z,2.72
2018-01-25T13:19:59.120Z,2.83
2018-01-25T13:22:28.032Z,2.30
2018-01-25T13:24:56.197Z,2.92
2018-01-25T13:27:25.121Z,2.92
2018-01-25T13:29:53.275Z,3.05
2018-01-25T13:32:21.446Z,2.55
2018-01-25T13:34:49.582Z,2.85
2018-01-25T13:37:17.746Z,3.00
2018-01-25T13:39:45.872Z,3.25
2018-01-25T13:42:14.108Z,3.17
2018-01-25T13:44:42.258Z,2.87
2018-01-25T13:47:10.424Z,4.50
2018-01-25T13:49:38.555Z,2.70
2018-01-25T13:52:06.716Z,2.70
2018-01-25T13:54:34.858Z,3.12
2018-01-25T13:57:03.026Z,3.90
2018-01-25T13:59:31.204Z,2.65
2018-01-25T14:01:59.382Z,3.65
2018-01-25T14:04:27.521Z,3.12
2018-01-25T14:06:55.699Z,2.80
2018-01-25T14:09:23.844Z,2.83
2018-01-25T14:11:52.001Z,2.75
2018-01-25T14:14:20.902Z,3.20
2018-01-25T14:16:49.053Z,2.53
2018-01-25T14:19:17.219Z,4.43
2018-01-25T14:21:45.374Z,3.72
2018-01-25T14:24:13.504Z,3.83
2018-01-25T14:26:41.662Z,2.95
2018-01-25T14:29:10.571Z,3.17
2018-01-25T14:31:38.736Z,3.47
2018-01-25T14:34:06.880Z,3.20
2018-01-25T14:36:35.037Z,4.60
2018-01-25T14:39:03.177Z,3.67
2018-01-25T14:41:31.325Z,4.35
2018-01-25T14:44:00.242Z,3.78
2018-01-25T14:46:28.407Z,4.47
2018-01-25T14:48:56.566Z,3.22
2018-01-25T14:51:24.776Z,3.47
2018-01-25T14:53:52.907Z,4.53
2018-01-25T14:56:21.860Z,3.80
2018-01-25T14:58:50.009Z,4.62
2018-01-25T15:01:18.178Z,4.95
2018-01-25T15:03:46.359Z,5.70
2018-01-25T15:06:14.531Z,3.47
2018-01-25T15:08:42.662Z,4.10
2018-01-25T15:11:10.823Z,3.90
2018-01-25T15:13:39.013Z,4.50
2018-01-25T15:16:07.928Z,3.95
2018-01-25T15:18:36.897Z,3.85
2018-01-25T15:21:05.067Z,3.67
2018-01-25T15:23:33.958Z,3.15
2018-01-25T15:26:06.093Z,3.90
2018-01-25T15:28:34.235Z,3.37
2018-01-25T15:31:02.406Z,4.20
2018-01-25T15:33:30.533Z,3.70
2018-01-25T15:35:58.664Z,3.95
2018-01-25T15:38:26.823Z,3.92
2018-01-25T15:40:54.990Z,3.83
2018-01-25T15:43:23.152Z,4.10
2018-01-25T15:45:51.282Z,4.25
2018-01-25T15:48:19.478Z,3.90
2018-01-25T15:50:47.606Z,5.12
2018-01-25T15:53:15.759Z,6.03
2018-01-25T15:55:43.880Z,5.12
2018-01-25T15:58:12.041Z,4.90
2018-01-25T16:00:40.343Z,5.12
2018-01-25T16:03:09.407Z,5.62
2018-01-25T16:05:37.608Z,5.18
2018-01-25T16:08:05.809Z,5.60
2018-01-25T16:10:34.048Z,5.00
2018-01-25T16:13:02.213Z,6.20
2018-01-25T16:15:30.493Z,6.05
2018-01-25T16:17:58.674Z,5.55
2018-01-25T16:20:26.820Z,5.82
2018-01-25T16:22:55.040Z,4.75
2018-01-25T16:25:23.161Z,4.50
2018-01-25T16:27:51.326Z,5.57
2018-01-25T16:30:19.496Z,6.37
2018-01-25T16:32:47.680Z,5.20
2018-01-25T16:35:15.807Z,5.00
2018-01-25T16:37:44.734Z,6.03
2018-01-25T16:40:12.860Z,5.95
2018-01-25T16:42:41.008Z,5.60
2018-01-25T16:45:09.167Z,4.82
2018-01-25T16:47:37.317Z,4.57
2018-01-25T16:50:05.450Z,6.65
2018-01-25T16:52:33.602Z,5.65
2018-01-25T16:55:01.734Z,5.90
2018-01-25T16:57:29.914Z,5.22
2018-01-25T16:59:58.054Z,6.20
2018-01-25T17:02:26.220Z,5.70
2018-01-25T17:04:54.365Z,6.40
2018-01-25T17:07:22.552Z,5.35
2018-01-25T17:09:50.685Z,5.45
2018-01-25T17:12:18.841Z,5.22
2018-01-25T17:14:46.974Z,6.32
2018-01-25T17:17:15.125Z,6.10
2018-01-25T17:19:43.249Z,6.65
2018-01-25T17:22:12.170Z,5.78
2018-01-25T17:24:40.298Z,5.80
2018-01-25T17:27:08.453Z,7.20
2018-01-25T17:29:36.588Z,4.85
2018-01-25T17:32:04.752Z,7.43
2018-01-25T17:34:33.190Z,6.00
2018-01-25T17:37:01.404Z,7.47
2018-01-25T17:39:29.794Z,5.60
2018-01-25T17:41:58.208Z,5.70
2018-01-25T17:44:26.384Z,5.93
2018-01-25T17:46:54.712Z,4.97
2018-01-25T17:49:22.842Z,5.70
2018-01-25T17:51:51.060Z,6.12
2018-01-25T17:54:19.292Z,6.45
2018-01-25T17:56:47.563Z,6.72
2018-01-25T17:59:16.038Z,7.97
2018-01-25T18:01:44.264Z,7.30
2018-01-25T18:04:12.690Z,6.95
2018-01-25T18:06:40.937Z,6.37
2018-01-25T18:09:09.613Z,6.40
2018-01-25T18:11:38.072Z,5.97
2018-01-25T18:14:06.425Z,6.20
2018-01-25T18:16:34.880Z,7.05
2018-01-25T18:19:03.076Z,6.72
2018-01-25T18:21:31.245Z,5.28
2018-01-25T18:23:59.381Z,5.15
2018-01-25T18:26:27.565Z,5.90
2018-01-25T18:28:55.712Z,6.07
2018-01-25T18:31:24.640Z,6.40
2018-01-25T18:33:52.796Z,6.03
2018-01-25T18:36:20.921Z,6.47
2018-01-25T18:38:50.523Z,6.03
2018-01-25T18:41:18.964Z,5.60
2018-01-25T18:43:47.712Z,6.70
2018-01-25T18:46:15.869Z,6.30
2018-01-25T18:48:44.561Z,6.78
2018-01-25T18:51:13.578Z,6.00
2018-01-25T18:53:41.765Z,5.72
2018-01-25T18:56:10.641Z,6.10
2018-01-25T18:58:40.038Z,5.43
2018-01-25T19:01:08.757Z,5.82
2018-01-25T19:03:37.017Z,5.57
2018-01-25T19:06:05.574Z,6.07
2018-01-25T19:08:33.996Z,5.70
2018-01-25T19:11:02.861Z,6.15
2018-01-25T19:13:31.437Z,5.60
2018-01-25T19:16:00.346Z,6.15
2018-01-25T19:18:28.618Z,5.45
2018-01-25T19:20:56.759Z,5.00
2018-01-25T19:23:24.929Z,6.25
2018-01-25T19:25:53.063Z,5.80
2018-01-25T19:28:21.394Z,5.32
2018-01-25T19:30:59.375Z,5.75
2018-01-25T19:33:27.771Z,5.93
2018-01-25T19:35:55.954Z,6.03
2018-01-25T19:38:24.133Z,5.57
2018-01-25T19:40:53.099Z,5.70
2018-01-25T19:43:21.264Z,5.35
2018-01-25T19:45:49.564Z,6.03
2018-01-25T19:48:18.717Z,5.60
2018-01-25T19:50:47.067Z,5.62
2018-01-25T19:53:16.291Z,5.78
2018-01-25T19:55:44.566Z,15.82
2018-01-25T19:58:12.814Z,7.90
2018-01-25T20:00:41.035Z,5.90
2018-01-25T20:03:09.226Z,6.32
2018-01-25T20:05:37.390Z,6.30
2018-01-25T20:08:05.569Z,4.90
2018-01-25T20:10:33.780Z,6.47
2018-01-25T20:13:01.959Z,6.62
2018-01-25T20:15:30.166Z,5.45
2018-01-25T20:17:58.329Z,5.05
2018-01-25T20:20:26.588Z,5.85
2018-01-25T20:22:54.790Z,7.30
2018-01-25T20:25:22.958Z,5.90
2018-01-25T20:27:51.402Z,5.65
2018-01-25T20:30:20.319Z,5.50
2018-01-25T20:32:48.583Z,6.50
2018-01-25T20:35:16.781Z,5.43
2018-01-25T20:37:44.981Z,8.30
2018-01-25T20:40:13.173Z,5.97
2018-01-25T20:42:41.364Z,5.35
2018-01-25T20:45:10.301Z,5.95
2018-01-25T20:47:38.544Z,7.65
2018-01-25T20:50:06.699Z,5.00
2018-01-25T20:52:34.873Z,5.40
2018-01-25T20:55:03.807Z,5.47
2018-01-25T20:57:31.930Z,5.53
2018-01-25T21:00:00.963Z,5.40
2018-01-25T21:02:29.175Z,4.95
2018-01-25T21:04:57.344Z,5.47
2018-01-25T21:07:25.460Z,5.50
2018-01-25T21:09:53.687Z,5.00
2018-01-25T21:12:21.811Z,5.62
2018-01-25T21:14:50.027Z,5.60
2018-01-25T21:17:18.172Z,5.70
2018-01-25T21:19:46.324Z,5.60
2018-01-25T21:22:14.458Z,5.68
2018-01-25T21:24:42.601Z,5.30
2018-01-25T21:27:10.733Z,5.35
2018-01-25T21:29:38.908Z,5.47
2018-01-25T21:32:07.043Z,4.62
2018-01-25T21:34:35.198Z,6.03
2018-01-25T21:37:03.375Z,6.03
2018-01-25T21:39:31.531Z,4.95
2018-01-25T21:41:59.685Z,4.55
2018-01-25T21:44:28.606Z,4.32
2018-01-25T21:46:56.755Z,5.47
2018-01-25T21:49:25.667Z,5.30
2018-01-25T21:51:53.792Z,5.00
2018-01-25T21:54:21.961Z,5.72
2018-01-25T21:56:50.089Z,4.85
2018-01-25T21:59:18.269Z,6.43
2018-01-25T22:01:46.402Z,5.60
2018-01-25T22:04:15.406Z,5.35
2018-01-25T22:06:43.542Z,5.70
2018-01-25T22:09:11.750Z,5.53
2018-01-25T22:11:39.885Z,5.62
2018-01-25T22:14:08.132Z,5.65
2018-01-25T22:16:36.289Z,5.60
2018-01-25T22:19:04.485Z,6.25
2018-01-25T22:21:32.638Z,6.50
2018-01-25T22:24:00.770Z,6.93
2018-01-25T22:26:28.929Z,6.18
2018-01-25T22:28:57.244Z,6.37
2018-01-25T22:31:25.416Z,7.60
2018-01-25T22:33:54.314Z,7.60
2018-01-25T22:36:22.467Z,6.20
2018-01-25T22:38:51.357Z,6.28
2018-01-25T22:41:19.503Z,5.72
2018-01-25T22:43:47.646Z,5.78
2018-01-25T22:46:15.789Z,5.60
2018-01-25T22:48:43.916Z,5.37
2018-01-25T22:51:12.069Z,5.60
2018-01-25T22:53:40.185Z,5.30
2018-01-25T22:56:08.332Z,6.82
2018-01-25T22:58:36.452Z,6.30
2018-01-25T23:01:04.602Z,6.45
2018-01-25T23:03:32.712Z,7.47
2018-01-25T23:06:00.877Z,7.10
2018-01-25T23:08:29.006Z,6.05
2018-01-25T23:10:57.133Z,6.90
2018-01-25T23:13:25.277Z,6.53
2018-01-25T23:15:53.410Z,7.28
2018-01-25T23:18:21.557Z,6.85
2018-01-25T23:20:49.681Z,6.50
2018-01-25T23:23:17.837Z,7.40
2018-01-25T23:25:45.966Z,6.50
2018-01-25T23:28:14.108Z,5.22
2018-01-25T23:30:42.234Z,6.25
2018-01-25T23:33:10.381Z,5.40
2018-01-25T23:35:38.502Z,6.10
2018-01-25T23:38:06.647Z,6.30
2018-01-25T23:40:34.764Z,6.12
2018-01-25T23:43:02.919Z,6.45
2018-01-25T23:45:31.045Z,5.65
2018-01-25T23:47:59.193Z,7.85
2018-01-25T23:50:27.318Z,8.20
2018-01-25T23:52:55.473Z,9.48
2018-01-25T23:55:23.605Z,7.97
2018-01-25T23:57:51.749Z,7.78
